Time;durP1;ratioP1;P1;durP2;ratioP2;P2;SDS_P1;SDS_P2;PMS_P1;PMS_P2;Temp;Humidity;BMP_temperature;BMP_pressure;BME280_temperature;BME280_humidity;BME280_pressure;Samples;Min_cycle;Max_cycle;Signal;HPM_P1;HPM_P2
2021/01/08 00:02:31;;;;;;;;;28.50;25.50;;;;;;;;12546524;28;9673;-52
2021/01/08 00:08:32;;;;;;;;;24.00;21.00;;;;;;;;12545270;28;8841;-48
2021/01/08 00:14:34;;;;;;;;;28.75;25.75;;;;;;;;12540828;28;8872;-51
2021/01/08 00:20:35;;;;;;;;;26.50;26.50;;;;;;;;12552663;28;8890;-46
2021/01/08 00:26:38;;;;;;;;;27.00;23.00;;;;;;;;12548003;28;8859;-50
2021/01/08 00:32:39;;;;;;;;;28.00;25.00;;;;;;;;12545254;28;8892;-49
2021/01/08 00:38:40;;;;;;;;;27.25;25.00;;;;;;;;12544658;28;8863;-49
2021/01/08 00:44:43;;;;;;;;;19.00;18.75;;;;;;;;12541391;28;8829;-48
2021/01/08 00:50:44;;;;;;;;;27.00;23.25;;;;;;;;12545539;28;8835;-48
2021/01/08 00:56:46;;;;;;;;;27.50;24.00;;;;;;;;12536994;28;8854;-49
2021/01/08 01:03:03;;;;;;;;;23.25;21.00;;;;;;;;12530738;28;8845;-49
2021/01/08 01:09:04;;;;;;;;;23.00;22.25;;;;;;;;12540800;28;8835;-51
2021/01/08 01:15:06;;;;;;;;;27.25;25.25;;;;;;;;12550069;28;8825;-51
2021/01/08 01:21:08;;;;;;;;;27.00;23.25;;;;;;;;12544076;28;8896;-49
2021/01/08 01:27:09;;;;;;;;;27.50;24.00;;;;;;;;12534335;28;8850;-45
2021/01/08 01:33:10;;;;;;;;;22.00;22.00;;;;;;;;12551196;28;8838;-52
2021/01/08 01:39:13;;;;;;;;;28.00;25.50;;;;;;;;12543378;28;8875;-50
2021/01/08 01:45:14;;;;;;;;;25.75;20.75;;;;;;;;12551033;28;8848;-49
2021/01/08 01:51:18;;;;;;;;;22.25;20.75;;;;;;;;12546541;28;9109;-50
2021/01/08 01:57:19;;;;;;;;;23.50;23.50;;;;;;;;12542066;28;8850;-48
2021/01/08 02:03:27;;;;;;;;;28.25;23.75;;;;;;;;12551478;28;8846;-50
2021/01/08 02:09:29;;;;;;;;;31.00;26.75;;;;;;;;12547439;28;8849;-49
2021/01/08 02:15:31;;;;;;;;;29.00;27.75;;;;;;;;12550784;28;8855;-48
2021/01/08 02:21:45;;;;;;;;;24.00;23.50;;;;;;;;12549995;28;8853;-48
2021/01/08 02:28:03;;;;;;;;;27.25;26.00;;;;;;;;12548254;28;8841;-46
2021/01/08 02:34:05;;;;;;;;;22.00;19.75;;;;;;;;12544675;28;8863;-47
2021/01/08 02:40:09;;;;;;;;;21.00;19.75;;;;;;;;12526718;28;8827;-49
2021/01/08 02:46:11;;;;;;;;;20.00;15.75;;;;;;;;12531457;28;8954;-47
2021/01/08 02:52:13;;;;;;;;;22.50;20.00;;;;;;;;12532800;28;8850;-49
2021/01/08 02:58:14;;;;;;;;;24.50;20.50;;;;;;;;12543126;28;9686;-50
2021/01/08 03:04:17;;;;;;;;;16.50;15.50;;;;;;;;12537991;28;8855;-49
2021/01/08 03:10:19;;;;;;;;;13.00;13.00;;;;;;;;12538559;28;8889;-47
2021/01/08 03:16:21;;;;;;;;;13.25;13.25;;;;;;;;12543612;28;8940;-49
2021/01/08 03:22:22;;;;;;;;;16.75;15.25;;;;;;;;12537197;28;8850;-47
2021/01/08 03:28:23;;;;;;;;;16.00;15.00;;;;;;;;12549928;28;8818;-51
2021/01/08 03:34:25;;;;;;;;;14.25;12.25;;;;;;;;12541547;28;8836;-49
2021/01/08 03:40:26;;;;;;;;;4.00;4.00;;;;;;;;12535142;28;9224;-50
2021/01/08 03:46:28;;;;;;;;;5.50;3.50;;;;;;;;12531011;28;8868;-50
2021/01/08 03:52:29;;;;;;;;;8.00;8.00;;;;;;;;12551960;28;8873;-48
2021/01/08 03:58:31;;;;;;;;;7.00;7.00;;;;;;;;12554259;28;8840;-46
2021/01/08 04:04:32;;;;;;;;;8.75;7.75;;;;;;;;12554812;28;8842;-49
2021/01/08 04:10:33;;;;;;;;;12.00;10.00;;;;;;;;12548642;28;8822;-47
2021/01/08 04:16:36;;;;;;;;;10.00;8.50;;;;;;;;12555538;28;8847;-46
2021/01/08 04:22:38;;;;;;;;;9.50;8.00;;;;;;;;12555403;28;8860;-49
2021/01/08 04:28:40;;;;;;;;;8.50;8.50;;;;;;;;12555311;28;9586;-49
2021/01/08 04:34:41;;;;;;;;;8.00;8.00;;;;;;;;12545288;28;9616;-48
2021/01/08 04:40:43;;;;;;;;;8.00;8.00;;;;;;;;12541197;28;8826;-47
2021/01/08 04:46:46;;;;;;;;;11.00;11.00;;;;;;;;12543122;28;8864;-46
2021/01/08 04:52:48;;;;;;;;;13.50;10.25;;;;;;;;12537056;28;8900;-48
2021/01/08 04:58:51;;;;;;;;;17.00;17.00;;;;;;;;12542459;28;8842;-52
2021/01/08 05:04:54;;;;;;;;;13.50;12.25;;;;;;;;13045570;22;8832;-48
2021/01/08 05:10:56;;;;;;;;;13.00;12.00;;;;;;;;12637769;28;9576;-48
2021/01/08 05:16:58;;;;;;;;;11.75;9.50;;;;;;;;12636653;28;8824;-47
2021/01/08 05:23:00;;;;;;;;;11.25;9.00;;;;;;;;12636179;28;9572;-46
2021/01/08 05:29:03;;;;;;;;;14.25;14.25;;;;;;;;12637350;28;8835;-49
2021/01/08 05:35:05;;;;;;;;;15.50;15.00;;;;;;;;12634668;28;8847;-51
2021/01/08 05:41:09;;;;;;;;;20.25;18.25;;;;;;;;12636071;28;8831;-48
2021/01/08 05:47:10;;;;;;;;;14.75;12.00;;;;;;;;12627194;28;8831;-50
2021/01/08 05:53:12;;;;;;;;;18.00;14.00;;;;;;;;12634712;28;8840;-51
2021/01/08 05:59:14;;;;;;;;;18.00;16.25;;;;;;;;12635562;28;8916;-51
2021/01/08 06:05:16;;;;;;;;;10.50;10.50;;;;;;;;12596791;28;8927;-48
2021/01/08 06:11:26;;;;;;;;;15.25;15.00;;;;;;;;12581409;28;8849;-56
2021/01/08 06:17:28;;;;;;;;;13.25;12.25;;;;;;;;12576811;28;8841;-50
2021/01/08 06:23:33;;;;;;;;;15.00;14.25;;;;;;;;12576480;28;8846;-49
2021/01/08 06:29:41;;;;;;;;;17.00;12.75;;;;;;;;12578735;28;8822;-51
2021/01/08 06:35:47;;;;;;;;;14.75;14.75;;;;;;;;12576987;28;8837;-48
2021/01/08 06:41:55;;;;;;;;;12.25;10.50;;;;;;;;12574410;28;8838;-49
2021/01/08 06:48:02;;;;;;;;;19.00;15.75;;;;;;;;12568142;28;8944;-51
2021/01/08 06:54:05;;;;;;;;;20.50;20.50;;;;;;;;12570592;28;8837;-51
2021/01/08 07:00:08;;;;;;;;;31.00;24.75;;;;;;;;12605298;28;8972;-54
2021/01/08 07:06:09;;;;;;;;;27.25;22.50;;;;;;;;12613841;28;8865;-51
2021/01/08 07:12:11;;;;;;;;;29.50;29.50;;;;;;;;12619261;28;8839;-52
2021/01/08 07:18:13;;;;;;;;;59.50;44.75;;;;;;;;12617777;28;8833;-49
2021/01/08 07:24:37;;;;;;;;;36.00;32.00;;;;;;;;12622295;28;9035;-47
2021/01/08 07:30:39;;;;;;;;;26.75;26.25;;;;;;;;12615100;28;8908;-49
2021/01/08 07:36:41;;;;;;;;;30.25;28.50;;;;;;;;12628770;28;9607;-48
2021/01/08 07:43:00;;;;;;;;;26.50;23.00;;;;;;;;12615005;28;8815;-50
2021/01/08 07:49:04;;;;;;;;;51.00;42.00;;;;;;;;12633307;28;8846;-48
2021/01/08 07:55:06;;;;;;;;;34.00;26.25;;;;;;;;12634029;28;8837;-53
2021/01/08 08:01:10;;;;;;;;;31.25;28.50;;;;;;;;12626935;28;9618;-52
2021/01/08 08:07:12;;;;;;;;;71.00;55.25;;;;;;;;12623138;28;8848;-50
2021/01/08 08:13:15;;;;;;;;;31.00;26.00;;;;;;;;12637832;28;8870;-50
2021/01/08 08:19:17;;;;;;;;;25.50;23.75;;;;;;;;12634031;28;8859;-51
2021/01/08 08:25:25;;;;;;;;;23.25;19.00;;;;;;;;12634203;28;8815;-53
2021/01/08 08:31:48;;;;;;;;;23.50;22.75;;;;;;;;12629643;28;8826;-52
2021/01/08 08:37:56;;;;;;;;;20.75;17.75;;;;;;;;12633667;28;8838;-49
2021/01/08 08:44:05;;;;;;;;;18.00;16.50;;;;;;;;12633243;28;8831;-48
2021/01/08 08:50:07;;;;;;;;;24.00;20.50;;;;;;;;12625278;28;8824;-53
2021/01/08 08:56:12;;;;;;;;;31.00;26.25;;;;;;;;12624338;28;8838;-51
2021/01/08 09:02:25;;;;;;;;;28.75;25.50;;;;;;;;12618189;28;8843;-53
2021/01/08 09:08:36;;;;;;;;;25.50;16.50;;;;;;;;12621475;28;8838;-50
2021/01/08 09:14:39;;;;;;;;;17.25;16.75;;;;;;;;12623557;28;8828;-50
2021/01/08 09:20:54;;;;;;;;;10.00;10.00;;;;;;;;12622204;28;8870;-52
2021/01/08 09:27:04;;;;;;;;;19.50;19.50;;;;;;;;12620911;28;9600;-51
2021/01/08 09:33:14;;;;;;;;;10.00;8.00;;;;;;;;12623190;28;8870;-51
2021/01/08 09:39:16;;;;;;;;;35.50;31.00;;;;;;;;12615519;28;8892;-52
2021/01/08 09:45:22;;;;;;;;;20.25;19.75;;;;;;;;12623126;28;8887;-51
2021/01/08 09:51:23;;;;;;;;;19.25;17.50;;;;;;;;12620899;28;8853;-53
2021/01/08 09:57:30;;;;;;;;;21.00;18.00;;;;;;;;12623581;28;8827;-51
2021/01/08 10:03:31;;;;;;;;;16.50;13.75;;;;;;;;12623643;28;8913;-53
2021/01/08 10:09:52;;;;;;;;;22.75;19.25;;;;;;;;12619126;28;8896;-49
2021/01/08 10:15:56;;;;;;;;;27.50;26.00;;;;;;;;12625497;28;8882;-49
2021/01/08 10:22:01;;;;;;;;;18.25;18.25;;;;;;;;12624029;28;8956;-52
2021/01/08 10:28:17;;;;;;;;;24.00;21.50;;;;;;;;12624017;28;8844;-51
2021/01/08 10:34:18;;;;;;;;;24.75;22.25;;;;;;;;12617832;28;8968;-53
2021/01/08 10:40:19;;;;;;;;;21.50;17.25;;;;;;;;12624599;28;8827;-47
2021/01/08 10:46:21;;;;;;;;;18.75;17.75;;;;;;;;12625095;28;8855;-54
2021/01/08 10:52:23;;;;;;;;;22.25;18.00;;;;;;;;12617193;28;8826;-52
2021/01/08 10:58:24;;;;;;;;;20.00;19.50;;;;;;;;12617031;28;8844;-54
2021/01/08 11:04:25;;;;;;;;;14.00;14.00;;;;;;;;12613006;28;8850;-50
2021/01/08 11:10:27;;;;;;;;;17.00;16.00;;;;;;;;12625025;28;8866;-50
2021/01/08 11:16:30;;;;;;;;;20.00;20.00;;;;;;;;12609810;28;8878;-52
2021/01/08 11:22:32;;;;;;;;;10.75;10.75;;;;;;;;12562727;28;8833;-49
2021/01/08 11:28:35;;;;;;;;;14.25;14.00;;;;;;;;12567224;28;8910;-53
2021/01/08 11:34:40;;;;;;;;;17.00;16.75;;;;;;;;12565585;28;8884;-55
2021/01/08 11:40:42;;;;;;;;;17.50;15.50;;;;;;;;12567333;28;8834;-53
2021/01/08 11:46:43;;;;;;;;;15.00;14.25;;;;;;;;12618866;28;8856;-51
2021/01/08 11:52:45;;;;;;;;;18.75;18.75;;;;;;;;12618630;28;8827;-51
2021/01/08 11:58:48;;;;;;;;;11.25;11.25;;;;;;;;12620919;28;8843;-50
2021/01/08 12:04:50;;;;;;;;;14.50;13.00;;;;;;;;12601644;28;8893;-51
2021/01/08 12:10:53;;;;;;;;;9.50;9.50;;;;;;;;12622925;28;8839;-52
2021/01/08 12:17:01;;;;;;;;;10.50;9.00;;;;;;;;12619595;28;8858;-51
2021/01/08 12:23:03;;;;;;;;;11.50;9.00;;;;;;;;12579356;28;8857;-51
2021/01/08 12:29:05;;;;;;;;;5.50;5.50;;;;;;;;12579605;28;8822;-51
2021/01/08 12:35:07;;;;;;;;;13.00;10.00;;;;;;;;12601386;28;8847;-55
2021/01/08 12:41:10;;;;;;;;;7.25;7.25;;;;;;;;12630357;28;8834;-57
2021/01/08 12:47:11;;;;;;;;;10.50;10.50;;;;;;;;12622844;28;8845;-52
2021/01/08 12:53:13;;;;;;;;;12.00;10.00;;;;;;;;12622126;28;8831;-55
2021/01/08 12:59:14;;;;;;;;;22.00;19.50;;;;;;;;12622082;28;8827;-52
2021/01/08 13:05:15;;;;;;;;;11.50;11.00;;;;;;;;12614476;28;8838;-50
2021/01/08 13:11:17;;;;;;;;;11.25;10.75;;;;;;;;12625223;28;8818;-51
2021/01/08 13:17:18;;;;;;;;;17.75;14.25;;;;;;;;12619111;28;8845;-52
2021/01/08 13:23:20;;;;;;;;;24.75;22.50;;;;;;;;12622833;28;8827;-54
2021/01/08 13:29:22;;;;;;;;;15.75;12.75;;;;;;;;12622627;28;8862;-53
2021/01/08 13:35:24;;;;;;;;;18.75;17.50;;;;;;;;12617228;28;8844;-54
2021/01/08 13:41:25;;;;;;;;;16.00;16.00;;;;;;;;12622191;28;8831;-52
2021/01/08 13:47:28;;;;;;;;;19.75;17.25;;;;;;;;12620090;28;8957;-53
2021/01/08 13:53:29;;;;;;;;;23.25;23.00;;;;;;;;12623063;28;9811;-50
2021/01/08 13:59:31;;;;;;;;;19.00;19.00;;;;;;;;12623290;28;8838;-48
2021/01/08 14:05:32;;;;;;;;;27.00;22.50;;;;;;;;12618940;28;8874;-52
2021/01/08 14:11:35;;;;;;;;;19.00;17.75;;;;;;;;12626666;28;8890;-52
2021/01/08 14:17:39;;;;;;;;;19.00;19.00;;;;;;;;12624160;28;8963;-48
2021/01/08 14:23:46;;;;;;;;;16.50;14.75;;;;;;;;12624483;28;8867;-54
2021/01/08 14:29:48;;;;;;;;;17.00;11.00;;;;;;;;12622311;28;8835;-53
2021/01/08 14:35:54;;;;;;;;;13.00;13.00;;;;;;;;12621312;28;8816;-51
2021/01/08 14:41:55;;;;;;;;;12.25;10.75;;;;;;;;12624386;28;8855;-53
2021/01/08 14:47:56;;;;;;;;;16.75;16.00;;;;;;;;12623673;28;8839;-52
2021/01/08 14:53:58;;;;;;;;;19.50;18.00;;;;;;;;12617027;28;8838;-51
2021/01/08 15:00:00;;;;;;;;;20.00;19.25;;;;;;;;12614651;28;8870;-50
2021/01/08 15:06:01;;;;;;;;;17.75;16.50;;;;;;;;12615160;28;8847;-52
2021/01/08 15:12:07;;;;;;;;;18.00;18.00;;;;;;;;12620798;28;8828;-54
2021/01/08 15:18:09;;;;;;;;;20.25;19.75;;;;;;;;12609993;28;9434;-55
2021/01/08 15:24:12;;;;;;;;;16.00;14.25;;;;;;;;12610353;28;8839;-52
2021/01/08 15:30:14;;;;;;;;;19.50;16.75;;;;;;;;12614651;28;8845;-53
2021/01/08 15:36:15;;;;;;;;;20.75;20.50;;;;;;;;12617581;28;8863;-50
2021/01/08 15:42:16;;;;;;;;;20.75;19.75;;;;;;;;12618925;28;8934;-52
2021/01/08 15:48:18;;;;;;;;;20.75;20.75;;;;;;;;12610732;28;8837;-50
2021/01/08 15:54:22;;;;;;;;;13.25;13.00;;;;;;;;12628933;28;8851;-52
2021/01/08 16:00:24;;;;;;;;;16.00;16.00;;;;;;;;12632792;28;8844;-52
2021/01/08 16:06:26;;;;;;;;;21.00;18.50;;;;;;;;12628395;28;8847;-52
2021/01/08 16:12:28;;;;;;;;;18.75;17.75;;;;;;;;12632261;28;8847;-52
2021/01/08 16:18:30;;;;;;;;;17.00;15.25;;;;;;;;12628711;28;8820;-54
2021/01/08 16:24:32;;;;;;;;;19.50;15.50;;;;;;;;12629792;28;8839;-52
2021/01/08 16:30:33;;;;;;;;;14.00;14.00;;;;;;;;12629381;28;8827;-53
2021/01/08 16:36:35;;;;;;;;;14.00;11.50;;;;;;;;12630672;28;8842;-51
2021/01/08 16:42:38;;;;;;;;;15.50;14.00;;;;;;;;12630336;28;9872;-49
2021/01/08 16:48:39;;;;;;;;;17.25;15.50;;;;;;;;12625314;28;9551;-52
2021/01/08 16:54:47;;;;;;;;;15.25;15.25;;;;;;;;12630266;28;8827;-50
2021/01/08 17:00:49;;;;;;;;;19.75;16.75;;;;;;;;12608502;28;8837;-50
2021/01/08 17:06:54;;;;;;;;;25.50;22.50;;;;;;;;12623648;28;8969;-51
2021/01/08 17:12:55;;;;;;;;;26.00;25.00;;;;;;;;12621202;28;8860;-49
2021/01/08 17:18:57;;;;;;;;;27.25;24.75;;;;;;;;12623958;28;8886;-53
2021/01/08 17:24:59;;;;;;;;;31.50;30.00;;;;;;;;12624626;28;8850;-51
2021/01/08 17:31:00;;;;;;;;;31.00;27.00;;;;;;;;12618786;28;8860;-48
2021/01/08 17:37:02;;;;;;;;;29.00;29.00;;;;;;;;12627819;28;8847;-55
2021/01/08 17:43:12;;;;;;;;;26.75;25.25;;;;;;;;12614069;28;8831;-54
2021/01/08 17:49:13;;;;;;;;;24.50;23.00;;;;;;;;12622257;28;8870;-50
2021/01/08 17:55:15;;;;;;;;;31.00;30.00;;;;;;;;12626541;28;8910;-52
2021/01/08 18:01:18;;;;;;;;;30.00;27.75;;;;;;;;12619504;28;8841;-50
2021/01/08 18:07:20;;;;;;;;;36.00;28.25;;;;;;;;12625812;28;8931;-49
2021/01/08 18:13:27;;;;;;;;;36.50;32.00;;;;;;;;12623987;28;8869;-49
2021/01/08 18:19:28;;;;;;;;;39.25;33.75;;;;;;;;12624813;28;8850;-48
2021/01/08 18:25:30;;;;;;;;;40.50;36.75;;;;;;;;12624492;28;8873;-49
2021/01/08 18:31:32;;;;;;;;;54.25;42.00;;;;;;;;12620066;28;8832;-48
2021/01/08 18:37:34;;;;;;;;;38.00;30.75;;;;;;;;12626276;28;8824;-53
2021/01/08 18:43:35;;;;;;;;;38.50;35.75;;;;;;;;12622655;28;9002;-51
2021/01/08 18:49:37;;;;;;;;;42.00;39.00;;;;;;;;12623580;28;8892;-51
2021/01/08 18:55:38;;;;;;;;;33.00;31.00;;;;;;;;12624262;28;9546;-52
2021/01/08 19:01:41;;;;;;;;;29.50;24.75;;;;;;;;12624177;28;8859;-51
2021/01/08 19:07:45;;;;;;;;;30.75;30.75;;;;;;;;12616902;28;8847;-49
2021/01/08 19:13:47;;;;;;;;;30.00;26.00;;;;;;;;12612062;28;8892;-51
2021/01/08 19:19:49;;;;;;;;;27.75;27.75;;;;;;;;12614009;28;8859;-50
2021/01/08 19:25:51;;;;;;;;;33.50;26.75;;;;;;;;12616195;28;8948;-54
2021/01/08 19:31:52;;;;;;;;;25.00;22.50;;;;;;;;12614449;28;8827;-48
2021/01/08 19:37:54;;;;;;;;;34.50;27.75;;;;;;;;12618275;28;8843;-52
2021/01/08 19:43:56;;;;;;;;;29.25;24.50;;;;;;;;12613216;28;8881;-46
2021/01/08 19:49:58;;;;;;;;;20.50;17.75;;;;;;;;12615693;28;8836;-48
2021/01/08 19:56:03;;;;;;;;;28.25;25.50;;;;;;;;12617426;28;8970;-48
2021/01/08 20:02:06;;;;;;;;;27.50;23.50;;;;;;;;12617411;28;8840;-50
2021/01/08 20:08:08;;;;;;;;;28.50;25.25;;;;;;;;12619441;28;8858;-48
2021/01/08 20:14:10;;;;;;;;;27.50;26.00;;;;;;;;12614518;28;8849;-48
2021/01/08 20:20:13;;;;;;;;;16.50;15.50;;;;;;;;12619116;28;8852;-50
2021/01/08 20:26:14;;;;;;;;;25.00;24.00;;;;;;;;12611552;28;8887;-53
2021/01/08 20:32:16;;;;;;;;;26.00;25.00;;;;;;;;12604640;28;8828;-49
2021/01/08 20:38:17;;;;;;;;;28.50;25.75;;;;;;;;12625340;28;8831;-48
2021/01/08 20:44:19;;;;;;;;;18.75;16.00;;;;;;;;12624447;28;8854;-49
2021/01/08 20:50:23;;;;;;;;;24.25;23.00;;;;;;;;12628297;28;9438;-47
2021/01/08 20:56:25;;;;;;;;;19.75;18.50;;;;;;;;12629397;28;8848;-51
2021/01/08 21:02:26;;;;;;;;;26.00;22.75;;;;;;;;12629290;28;8934;-47
2021/01/08 21:08:28;;;;;;;;;24.25;22.25;;;;;;;;12629524;28;8907;-49
2021/01/08 21:14:29;;;;;;;;;19.00;19.00;;;;;;;;12617612;28;8880;-49
2021/01/08 21:20:31;;;;;;;;;27.50;25.50;;;;;;;;12619808;28;8914;-50
2021/01/08 21:26:41;;;;;;;;;24.00;21.25;;;;;;;;12620049;28;9589;-49
2021/01/08 21:32:42;;;;;;;;;19.00;19.00;;;;;;;;12618039;28;8832;-48
2021/01/08 21:38:44;;;;;;;;;20.75;17.25;;;;;;;;12622828;28;8839;-48
2021/01/08 21:44:45;;;;;;;;;18.50;17.75;;;;;;;;12619290;28;8851;-47
2021/01/08 21:50:46;;;;;;;;;16.50;12.50;;;;;;;;12621571;28;8828;-48
2021/01/08 21:56:48;;;;;;;;;19.75;19.00;;;;;;;;12619704;28;8960;-48
2021/01/08 22:02:50;;;;;;;;;26.00;26.00;;;;;;;;12620824;28;8828;-52
2021/01/08 22:08:52;;;;;;;;;21.25;19.75;;;;;;;;12628664;28;8882;-49
2021/01/08 22:14:53;;;;;;;;;18.50;18.00;;;;;;;;12621088;28;8831;-51
2021/01/08 22:20:55;;;;;;;;;23.25;21.75;;;;;;;;12622476;28;8975;-51
2021/01/08 22:26:56;;;;;;;;;24.25;18.00;;;;;;;;12619469;28;8860;-49
2021/01/08 22:32:57;;;;;;;;;22.50;16.50;;;;;;;;12620868;28;8836;-46
2021/01/08 22:38:59;;;;;;;;;21.00;19.50;;;;;;;;12624135;28;9576;-48
2021/01/08 22:45:00;;;;;;;;;23.50;23.00;;;;;;;;12622283;28;9604;-49
2021/01/08 22:51:02;;;;;;;;;13.50;13.50;;;;;;;;12623459;28;8828;-50
2021/01/08 22:57:06;;;;;;;;;25.25;22.75;;;;;;;;12619746;28;8845;-48
2021/01/08 23:03:12;;;;;;;;;22.00;21.25;;;;;;;;12623051;28;9572;-49
2021/01/08 23:09:17;;;;;;;;;19.00;19.00;;;;;;;;12616685;28;8831;-47
2021/01/08 23:15:18;;;;;;;;;20.00;18.75;;;;;;;;12608963;28;8856;-49
2021/01/08 23:21:20;;;;;;;;;23.75;22.25;;;;;;;;12615861;28;8831;-48
2021/01/08 23:27:21;;;;;;;;;20.00;20.00;;;;;;;;12613402;28;8932;-48
2021/01/08 23:33:26;;;;;;;;;23.75;22.25;;;;;;;;12617681;28;8990;-51
2021/01/08 23:39:27;;;;;;;;;25.00;18.50;;;;;;;;12616106;28;8923;-52
2021/01/08 23:45:28;;;;;;;;;22.75;19.00;;;;;;;;12611679;28;8952;-47
2021/01/08 23:51:33;;;;;;;;;17.25;16.75;;;;;;;;12622997;28;8869;-46
2021/01/08 23:57:36;;;;;;;;;16.00;16.00;;;;;;;;12618159;28;8842;-47
